sensor_id;sensor_type;location;lat;lon;timestamp;P1;durP1;ratioP1;P2;durP2;ratioP2
29568;SDS011;16501;51.462;14.346;2022-10-16T00:02:01;12.43;;;8.77;;
29568;SDS011;16501;51.462;14.346;2022-10-16T00:04:26;12.15;;;9.40;;
29568;SDS011;16501;51.462;14.346;2022-10-16T00:06:51;12.52;;;9.02;;
29568;SDS011;16501;51.462;14.346;2022-10-16T00:09:17;11.10;;;8.55;;
29568;SDS011;16501;51.462;14.346;2022-10-16T00:11:42;12.73;;;9.20;;
29568;SDS011;16501;51.462;14.346;2022-10-16T00:14:09;11.07;;;8.80;;
29568;SDS011;16501;51.462;14.346;2022-10-16T00:16:36;11.15;;;8.48;;
29568;SDS011;16501;51.462;14.346;2022-10-16T00:19:02;15.50;;;8.32;;
29568;SDS011;16501;51.462;14.346;2022-10-16T00:21:29;10.90;;;9.18;;
29568;SDS011;16501;51.462;14.346;2022-10-16T00:23:56;12.05;;;8.57;;
29568;SDS011;16501;51.462;14.346;2022-10-16T00:26:24;12.65;;;8.20;;
29568;SDS011;16501;51.462;14.346;2022-10-16T00:28:50;13.45;;;8.65;;
29568;SDS011;16501;51.462;14.346;2022-10-16T00:31:17;12.27;;;8.73;;
29568;SDS011;16501;51.462;14.346;2022-10-16T00:33:44;11.35;;;8.65;;
29568;SDS011;16501;51.462;14.346;2022-10-16T00:36:10;12.85;;;8.85;;
29568;SDS011;16501;51.462;14.346;2022-10-16T00:38:38;10.55;;;8.77;;
29568;SDS011;16501;51.462;14.346;2022-10-16T00:41:05;11.32;;;9.30;;
29568;SDS011;16501;51.462;14.346;2022-10-16T00:46:15;11.93;;;8.15;;
29568;SDS011;16501;51.462;14.346;2022-10-16T00:48:40;10.75;;;8.73;;
29568;SDS011;16501;51.462;14.346;2022-10-16T00:51:11;11.75;;;8.73;;
29568;SDS011;16501;51.462;14.346;2022-10-16T00:53:36;9.50;;;8.40;;
29568;SDS011;16501;51.462;14.346;2022-10-16T00:56:03;9.48;;;8.00;;
29568;SDS011;16501;51.462;14.346;2022-10-16T00:58:29;13.52;;;9.63;;
29568;SDS011;16501;51.462;14.346;2022-10-16T01:00:54;13.00;;;10.30;;
29568;SDS011;16501;51.462;14.346;2022-10-16T01:03:30;11.27;;;8.73;;
29568;SDS011;16501;51.462;14.346;2022-10-16T01:06:43;11.48;;;8.52;;
29568;SDS011;16501;51.462;14.346;2022-10-16T01:11:41;14.90;;;9.05;;
29568;SDS011;16501;51.462;14.346;2022-10-16T01:14:22;10.80;;;8.15;;
29568;SDS011;16501;51.462;14.346;2022-10-16T01:16:54;11.90;;;8.45;;
29568;SDS011;16501;51.462;14.346;2022-10-16T01:19:57;10.80;;;8.30;;
29568;SDS011;16501;51.462;14.346;2022-10-16T01:25:39;11.63;;;8.25;;
29568;SDS011;16501;51.462;14.346;2022-10-16T01:28:21;8.50;;;7.45;;
29568;SDS011;16501;51.462;14.346;2022-10-16T01:30:50;11.63;;;7.70;;
29568;SDS011;16501;51.462;14.346;2022-10-16T01:33:21;10.02;;;7.63;;
29568;SDS011;16501;51.462;14.346;2022-10-16T01:35:55;11.55;;;8.18;;
29568;SDS011;16501;51.462;14.346;2022-10-16T01:38:46;10.70;;;7.47;;
29568;SDS011;16501;51.462;14.346;2022-10-16T01:41:18;9.27;;;8.05;;
29568;SDS011;16501;51.462;14.346;2022-10-16T01:46:34;11.43;;;8.30;;
29568;SDS011;16501;51.462;14.346;2022-10-16T01:49:03;11.40;;;8.05;;
29568;SDS011;16501;51.462;14.346;2022-10-16T01:51:31;10.65;;;7.40;;
29568;SDS011;16501;51.462;14.346;2022-10-16T01:53:59;9.18;;;7.00;;
29568;SDS011;16501;51.462;14.346;2022-10-16T01:56:27;11.75;;;8.15;;
29568;SDS011;16501;51.462;14.346;2022-10-16T01:58:55;11.73;;;7.97;;
29568;SDS011;16501;51.462;14.346;2022-10-16T02:02:01;10.60;;;7.78;;
29568;SDS011;16501;51.462;14.346;2022-10-16T02:04:42;9.27;;;7.55;;
29568;SDS011;16501;51.462;14.346;2022-10-16T02:07:18;9.88;;;7.57;;
29568;SDS011;16501;51.462;14.346;2022-10-16T02:09:44;9.90;;;7.43;;
29568;SDS011;16501;51.462;14.346;2022-10-16T02:12:10;10.45;;;7.70;;
29568;SDS011;16501;51.462;14.346;2022-10-16T02:14:44;10.98;;;8.20;;
29568;SDS011;16501;51.462;14.346;2022-10-16T02:17:13;11.10;;;8.00;;
29568;SDS011;16501;51.462;14.346;2022-10-16T02:19:40;12.45;;;8.23;;
29568;SDS011;16501;51.462;14.346;2022-10-16T02:22:09;9.48;;;8.23;;
29568;SDS011;16501;51.462;14.346;2022-10-16T02:24:44;14.88;;;8.25;;
29568;SDS011;16501;51.462;14.346;2022-10-16T02:27:21;10.88;;;8.70;;
29568;SDS011;16501;51.462;14.346;2022-10-16T02:29:58;10.15;;;8.48;;
29568;SDS011;16501;51.462;14.346;2022-10-16T02:32:28;14.13;;;9.43;;
29568;SDS011;16501;51.462;14.346;2022-10-16T02:35:14;11.98;;;9.25;;
29568;SDS011;16501;51.462;14.346;2022-10-16T02:37:43;11.15;;;8.35;;
29568;SDS011;16501;51.462;14.346;2022-10-16T02:40:11;11.93;;;9.77;;
29568;SDS011;16501;51.462;14.346;2022-10-16T02:42:38;12.85;;;9.20;;
29568;SDS011;16501;51.462;14.346;2022-10-16T02:45:05;12.02;;;9.73;;
29568;SDS011;16501;51.462;14.346;2022-10-16T02:47:31;11.18;;;8.57;;
29568;SDS011;16501;51.462;14.346;2022-10-16T02:49:57;10.30;;;8.68;;
29568;SDS011;16501;51.462;14.346;2022-10-16T02:52:23;11.15;;;9.15;;
29568;SDS011;16501;51.462;14.346;2022-10-16T02:54:50;14.70;;;10.15;;
29568;SDS011;16501;51.462;14.346;2022-10-16T02:57:15;11.27;;;8.98;;
29568;SDS011;16501;51.462;14.346;2022-10-16T02:59:40;14.48;;;10.30;;
29568;SDS011;16501;51.462;14.346;2022-10-16T03:02:06;10.93;;;9.38;;
29568;SDS011;16501;51.462;14.346;2022-10-16T03:04:32;14.00;;;9.77;;
29568;SDS011;16501;51.462;14.346;2022-10-16T03:06:57;12.73;;;9.48;;
29568;SDS011;16501;51.462;14.346;2022-10-16T03:09:23;12.10;;;9.38;;
29568;SDS011;16501;51.462;14.346;2022-10-16T03:11:48;11.68;;;9.55;;
29568;SDS011;16501;51.462;14.346;2022-10-16T03:14:13;13.90;;;10.48;;
29568;SDS011;16501;51.462;14.346;2022-10-16T03:16:38;14.25;;;9.50;;
29568;SDS011;16501;51.462;14.346;2022-10-16T03:19:04;11.98;;;9.50;;
29568;SDS011;16501;51.462;14.346;2022-10-16T03:21:29;12.95;;;9.57;;
29568;SDS011;16501;51.462;14.346;2022-10-16T03:23:54;13.23;;;10.13;;
29568;SDS011;16501;51.462;14.346;2022-10-16T03:26:20;11.77;;;9.40;;
29568;SDS011;16501;51.462;14.346;2022-10-16T03:28:45;12.50;;;9.43;;
29568;SDS011;16501;51.462;14.346;2022-10-16T03:31:10;12.15;;;9.77;;
29568;SDS011;16501;51.462;14.346;2022-10-16T03:33:36;11.10;;;8.82;;
29568;SDS011;16501;51.462;14.346;2022-10-16T03:36:01;13.75;;;9.40;;
29568;SDS011;16501;51.462;14.346;2022-10-16T03:38:27;10.98;;;8.80;;
29568;SDS011;16501;51.462;14.346;2022-10-16T03:40:52;11.93;;;9.68;;
29568;SDS011;16501;51.462;14.346;2022-10-16T03:43:18;12.57;;;9.43;;
29568;SDS011;16501;51.462;14.346;2022-10-16T03:45:44;12.55;;;9.02;;
29568;SDS011;16501;51.462;14.346;2022-10-16T03:48:09;11.00;;;8.65;;
29568;SDS011;16501;51.462;14.346;2022-10-16T03:50:34;15.02;;;8.93;;
29568;SDS011;16501;51.462;14.346;2022-10-16T03:53:00;13.30;;;9.20;;
29568;SDS011;16501;51.462;14.346;2022-10-16T03:55:25;16.65;;;9.32;;
29568;SDS011;16501;51.462;14.346;2022-10-16T03:57:50;13.02;;;8.98;;
29568;SDS011;16501;51.462;14.346;2022-10-16T04:00:16;12.65;;;9.23;;
29568;SDS011;16501;51.462;14.346;2022-10-16T04:02:41;12.18;;;8.85;;
29568;SDS011;16501;51.462;14.346;2022-10-16T04:05:07;10.90;;;8.73;;
29568;SDS011;16501;51.462;14.346;2022-10-16T04:07:32;9.43;;;8.50;;
29568;SDS011;16501;51.462;14.346;2022-10-16T04:09:58;11.73;;;8.70;;
29568;SDS011;16501;51.462;14.346;2022-10-16T04:12:24;11.40;;;8.25;;
29568;SDS011;16501;51.462;14.346;2022-10-16T04:14:50;15.20;;;9.52;;
29568;SDS011;16501;51.462;14.346;2022-10-16T04:17:16;11.50;;;8.85;;
29568;SDS011;16501;51.462;14.346;2022-10-16T04:19:41;10.90;;;8.77;;
29568;SDS011;16501;51.462;14.346;2022-10-16T04:22:06;11.50;;;7.90;;
29568;SDS011;16501;51.462;14.346;2022-10-16T04:24:32;12.07;;;9.40;;
29568;SDS011;16501;51.462;14.346;2022-10-16T04:26:57;9.98;;;7.75;;
29568;SDS011;16501;51.462;14.346;2022-10-16T04:29:22;11.07;;;8.43;;
29568;SDS011;16501;51.462;14.346;2022-10-16T04:31:49;10.90;;;8.35;;
29568;SDS011;16501;51.462;14.346;2022-10-16T04:34:15;9.63;;;8.32;;
29568;SDS011;16501;51.462;14.346;2022-10-16T04:36:40;9.73;;;8.25;;
29568;SDS011;16501;51.462;14.346;2022-10-16T04:39:06;10.45;;;7.88;;
29568;SDS011;16501;51.462;14.346;2022-10-16T04:41:31;13.40;;;8.15;;
29568;SDS011;16501;51.462;14.346;2022-10-16T04:43:56;11.55;;;8.95;;
29568;SDS011;16501;51.462;14.346;2022-10-16T04:46:22;12.00;;;8.65;;
29568;SDS011;16501;51.462;14.346;2022-10-16T04:48:47;11.45;;;8.50;;
29568;SDS011;16501;51.462;14.346;2022-10-16T04:51:12;14.77;;;8.75;;
29568;SDS011;16501;51.462;14.346;2022-10-16T04:53:39;11.13;;;8.13;;
29568;SDS011;16501;51.462;14.346;2022-10-16T04:56:04;10.65;;;8.40;;
29568;SDS011;16501;51.462;14.346;2022-10-16T04:58:29;9.45;;;8.30;;
29568;SDS011;16501;51.462;14.346;2022-10-16T05:00:55;15.18;;;9.35;;
29568;SDS011;16501;51.462;14.346;2022-10-16T05:03:20;12.07;;;9.55;;
29568;SDS011;16501;51.462;14.346;2022-10-16T05:05:45;9.73;;;8.27;;
29568;SDS011;16501;51.462;14.346;2022-10-16T05:08:13;13.25;;;9.65;;
29568;SDS011;16501;51.462;14.346;2022-10-16T05:10:43;10.23;;;8.30;;
29568;SDS011;16501;51.462;14.346;2022-10-16T05:13:09;14.60;;;9.75;;
29568;SDS011;16501;51.462;14.346;2022-10-16T05:15:35;10.20;;;9.02;;
29568;SDS011;16501;51.462;14.346;2022-10-16T05:18:02;12.32;;;9.10;;
29568;SDS011;16501;51.462;14.346;2022-10-16T05:20:27;14.30;;;9.73;;
29568;SDS011;16501;51.462;14.346;2022-10-16T05:22:53;10.35;;;8.88;;
29568;SDS011;16501;51.462;14.346;2022-10-16T05:25:18;9.77;;;8.77;;
29568;SDS011;16501;51.462;14.346;2022-10-16T05:27:46;11.57;;;8.70;;
29568;SDS011;16501;51.462;14.346;2022-10-16T05:30:14;10.43;;;8.45;;
29568;SDS011;16501;51.462;14.346;2022-10-16T05:32:40;11.52;;;8.75;;
29568;SDS011;16501;51.462;14.346;2022-10-16T05:35:06;12.25;;;9.05;;
29568;SDS011;16501;51.462;14.346;2022-10-16T05:37:32;12.48;;;8.20;;
29568;SDS011;16501;51.462;14.346;2022-10-16T05:39:58;10.35;;;8.50;;
29568;SDS011;16501;51.462;14.346;2022-10-16T05:42:24;12.15;;;9.95;;
29568;SDS011;16501;51.462;14.346;2022-10-16T05:44:50;12.95;;;8.77;;
29568;SDS011;16501;51.462;14.346;2022-10-16T05:47:15;10.32;;;8.00;;
29568;SDS011;16501;51.462;14.346;2022-10-16T05:49:40;11.27;;;9.32;;
29568;SDS011;16501;51.462;14.346;2022-10-16T05:52:06;10.85;;;8.32;;
29568;SDS011;16501;51.462;14.346;2022-10-16T05:54:31;12.23;;;8.55;;
29568;SDS011;16501;51.462;14.346;2022-10-16T05:56:58;14.52;;;9.43;;
29568;SDS011;16501;51.462;14.346;2022-10-16T05:59:23;14.68;;;8.73;;
29568;SDS011;16501;51.462;14.346;2022-10-16T06:01:48;9.55;;;8.15;;
29568;SDS011;16501;51.462;14.346;2022-10-16T06:04:15;10.73;;;8.75;;
29568;SDS011;16501;51.462;14.346;2022-10-16T06:06:40;10.50;;;8.88;;
29568;SDS011;16501;51.462;14.346;2022-10-16T06:09:05;10.43;;;7.72;;
29568;SDS011;16501;51.462;14.346;2022-10-16T06:11:31;8.75;;;7.85;;
29568;SDS011;16501;51.462;14.346;2022-10-16T06:14:00;9.98;;;8.05;;
29568;SDS011;16501;51.462;14.346;2022-10-16T06:16:31;8.50;;;7.55;;
29568;SDS011;16501;51.462;14.346;2022-10-16T06:18:57;9.13;;;8.20;;
29568;SDS011;16501;51.462;14.346;2022-10-16T06:21:24;11.80;;;8.30;;
29568;SDS011;16501;51.462;14.346;2022-10-16T06:23:51;11.43;;;8.30;;
29568;SDS011;16501;51.462;14.346;2022-10-16T06:26:19;12.40;;;8.25;;
29568;SDS011;16501;51.462;14.346;2022-10-16T06:28:48;9.60;;;8.60;;
29568;SDS011;16501;51.462;14.346;2022-10-16T06:31:13;9.80;;;8.75;;
29568;SDS011;16501;51.462;14.346;2022-10-16T06:33:40;10.30;;;8.63;;
29568;SDS011;16501;51.462;14.346;2022-10-16T06:36:06;13.77;;;8.90;;
29568;SDS011;16501;51.462;14.346;2022-10-16T06:38:36;11.02;;;8.43;;
29568;SDS011;16501;51.462;14.346;2022-10-16T06:41:02;9.20;;;8.25;;
29568;SDS011;16501;51.462;14.346;2022-10-16T06:43:28;11.15;;;8.88;;
29568;SDS011;16501;51.462;14.346;2022-10-16T06:45:57;8.60;;;7.68;;
29568;SDS011;16501;51.462;14.346;2022-10-16T06:48:24;11.38;;;8.27;;
29568;SDS011;16501;51.462;14.346;2022-10-16T06:51:06;9.15;;;8.20;;
29568;SDS011;16501;51.462;14.346;2022-10-16T06:53:39;11.13;;;8.60;;
29568;SDS011;16501;51.462;14.346;2022-10-16T06:56:08;10.55;;;8.40;;
29568;SDS011;16501;51.462;14.346;2022-10-16T06:58:36;9.50;;;7.88;;
29568;SDS011;16501;51.462;14.346;2022-10-16T07:01:03;10.73;;;7.60;;
29568;SDS011;16501;51.462;14.346;2022-10-16T07:03:29;9.98;;;7.10;;
29568;SDS011;16501;51.462;14.346;2022-10-16T07:05:55;11.63;;;7.28;;
29568;SDS011;16501;51.462;14.346;2022-10-16T07:08:21;11.07;;;7.20;;
29568;SDS011;16501;51.462;14.346;2022-10-16T07:10:57;8.75;;;7.15;;
29568;SDS011;16501;51.462;14.346;2022-10-16T07:13:26;7.07;;;6.38;;
29568;SDS011;16501;51.462;14.346;2022-10-16T07:15:53;8.50;;;6.30;;
29568;SDS011;16501;51.462;14.346;2022-10-16T07:18:19;7.35;;;6.35;;
29568;SDS011;16501;51.462;14.346;2022-10-16T07:20:44;8.10;;;5.47;;
29568;SDS011;16501;51.462;14.346;2022-10-16T07:23:09;6.13;;;5.50;;
29568;SDS011;16501;51.462;14.346;2022-10-16T07:25:35;7.00;;;6.20;;
29568;SDS011;16501;51.462;14.346;2022-10-16T07:28:00;7.43;;;5.18;;
29568;SDS011;16501;51.462;14.346;2022-10-16T07:30:25;5.95;;;5.40;;
29568;SDS011;16501;51.462;14.346;2022-10-16T07:32:52;10.05;;;5.78;;
29568;SDS011;16501;51.462;14.346;2022-10-16T07:35:19;7.35;;;5.30;;
29568;SDS011;16501;51.462;14.346;2022-10-16T07:37:45;7.85;;;5.97;;
29568;SDS011;16501;51.462;14.346;2022-10-16T07:40:11;6.18;;;5.50;;
29568;SDS011;16501;51.462;14.346;2022-10-16T07:42:36;14.20;;;6.45;;
29568;SDS011;16501;51.462;14.346;2022-10-16T07:45:01;6.70;;;5.50;;
29568;SDS011;16501;51.462;14.346;2022-10-16T07:47:28;7.25;;;5.60;;
29568;SDS011;16501;51.462;14.346;2022-10-16T07:49:53;8.70;;;6.13;;
29568;SDS011;16501;51.462;14.346;2022-10-16T07:52:18;7.32;;;5.85;;
29568;SDS011;16501;51.462;14.346;2022-10-16T07:54:44;6.97;;;6.22;;
29568;SDS011;16501;51.462;14.346;2022-10-16T07:57:09;5.80;;;5.18;;
29568;SDS011;16501;51.462;14.346;2022-10-16T07:59:34;8.90;;;6.07;;
29568;SDS011;16501;51.462;14.346;2022-10-16T08:02:00;7.00;;;6.30;;
29568;SDS011;16501;51.462;14.346;2022-10-16T08:04:25;6.43;;;5.68;;
29568;SDS011;16501;51.462;14.346;2022-10-16T08:06:50;8.45;;;6.05;;
29568;SDS011;16501;51.462;14.346;2022-10-16T08:09:15;7.68;;;5.80;;
29568;SDS011;16501;51.462;14.346;2022-10-16T08:11:41;10.95;;;5.50;;
29568;SDS011;16501;51.462;14.346;2022-10-16T08:14:06;10.38;;;5.85;;
29568;SDS011;16501;51.462;14.346;2022-10-16T08:16:32;7.45;;;5.88;;
29568;SDS011;16501;51.462;14.346;2022-10-16T08:18:57;6.75;;;5.63;;
29568;SDS011;16501;51.462;14.346;2022-10-16T08:21:22;8.80;;;5.45;;
29568;SDS011;16501;51.462;14.346;2022-10-16T08:23:50;5.72;;;5.13;;
29568;SDS011;16501;51.462;14.346;2022-10-16T08:26:16;7.18;;;4.85;;
29568;SDS011;16501;51.462;14.346;2022-10-16T08:28:41;5.40;;;4.70;;
29568;SDS011;16501;51.462;14.346;2022-10-16T08:31:10;4.35;;;3.95;;
29568;SDS011;16501;51.462;14.346;2022-10-16T08:33:38;5.25;;;4.75;;
29568;SDS011;16501;51.462;14.346;2022-10-16T08:36:05;4.57;;;4.10;;
29568;SDS011;16501;51.462;14.346;2022-10-16T08:38:31;6.18;;;4.97;;
29568;SDS011;16501;51.462;14.346;2022-10-16T08:41:01;7.93;;;4.03;;
29568;SDS011;16501;51.462;14.346;2022-10-16T08:44:01;5.03;;;3.58;;
29568;SDS011;16501;51.462;14.346;2022-10-16T08:47:13;4.13;;;3.33;;
29568;SDS011;16501;51.462;14.346;2022-10-16T08:49:36;6.78;;;3.33;;
29568;SDS011;16501;51.462;14.346;2022-10-16T08:52:02;8.02;;;3.58;;
29568;SDS011;16501;51.462;14.346;2022-10-16T08:54:29;2.70;;;2.50;;
29568;SDS011;16501;51.462;14.346;2022-10-16T08:57:01;3.40;;;2.42;;
29568;SDS011;16501;51.462;14.346;2022-10-16T08:59:34;3.70;;;2.80;;
29568;SDS011;16501;51.462;14.346;2022-10-16T09:02:00;3.00;;;2.70;;
29568;SDS011;16501;51.462;14.346;2022-10-16T09:05:02;3.08;;;2.47;;
29568;SDS011;16501;51.462;14.346;2022-10-16T09:10:11;5.63;;;2.80;;
29568;SDS011;16501;51.462;14.346;2022-10-16T09:15:35;2.70;;;2.50;;
29568;SDS011;16501;51.462;14.346;2022-10-16T09:21:05;6.97;;;2.63;;
29568;SDS011;16501;51.462;14.346;2022-10-16T09:23:41;6.95;;;2.65;;
29568;SDS011;16501;51.462;14.346;2022-10-16T09:26:09;2.35;;;2.15;;
29568;SDS011;16501;51.462;14.346;2022-10-16T09:28:37;2.30;;;2.10;;
29568;SDS011;16501;51.462;14.346;2022-10-16T09:31:03;2.28;;;2.05;;
29568;SDS011;16501;51.462;14.346;2022-10-16T09:33:29;6.80;;;2.65;;
29568;SDS011;16501;51.462;14.346;2022-10-16T09:35:59;4.88;;;2.20;;
29568;SDS011;16501;51.462;14.346;2022-10-16T09:38:32;5.63;;;2.38;;
29568;SDS011;16501;51.462;14.346;2022-10-16T09:41:00;5.90;;;1.75;;
29568;SDS011;16501;51.462;14.346;2022-10-16T09:48:48;5.07;;;2.37;;
29568;SDS011;16501;51.462;14.346;2022-10-16T09:51:26;3.20;;;2.70;;
29568;SDS011;16501;51.462;14.346;2022-10-16T09:53:56;2.45;;;2.25;;
29568;SDS011;16501;51.462;14.346;2022-10-16T09:56:26;4.38;;;2.10;;
29568;SDS011;16501;51.462;14.346;2022-10-16T09:58:57;2.38;;;2.17;;
29568;SDS011;16501;51.462;14.346;2022-10-16T10:01:35;3.97;;;2.38;;
29568;SDS011;16501;51.462;14.346;2022-10-16T10:04:03;2.65;;;2.45;;
29568;SDS011;16501;51.462;14.346;2022-10-16T10:06:30;4.40;;;2.30;;
29568;SDS011;16501;51.462;14.346;2022-10-16T10:16:49;3.80;;;3.50;;
29568;SDS011;16501;51.462;14.346;2022-10-16T10:19:16;3.28;;;2.97;;
29568;SDS011;16501;51.462;14.346;2022-10-16T10:21:42;3.58;;;3.03;;
29568;SDS011;16501;51.462;14.346;2022-10-16T10:24:10;4.40;;;2.90;;
29568;SDS011;16501;51.462;14.346;2022-10-16T10:26:36;4.30;;;3.03;;
29568;SDS011;16501;51.462;14.346;2022-10-16T10:29:08;5.88;;;3.92;;
29568;SDS011;16501;51.462;14.346;2022-10-16T10:31:56;4.35;;;3.33;;
29568;SDS011;16501;51.462;14.346;2022-10-16T10:40:34;3.55;;;2.95;;
29568;SDS011;16501;51.462;14.346;2022-10-16T10:44:13;5.03;;;3.63;;
29568;SDS011;16501;51.462;14.346;2022-10-16T10:46:38;4.93;;;4.32;;
29568;SDS011;16501;51.462;14.346;2022-10-16T10:52:29;3.80;;;2.72;;
29568;SDS011;16501;51.462;14.346;2022-10-16T10:55:15;4.15;;;2.45;;
29568;SDS011;16501;51.462;14.346;2022-10-16T10:58:14;3.40;;;2.10;;
29568;SDS011;16501;51.462;14.346;2022-10-16T11:00:50;2.80;;;2.50;;
29568;SDS011;16501;51.462;14.346;2022-10-16T11:03:41;2.83;;;1.90;;
29568;SDS011;16501;51.462;14.346;2022-10-16T11:06:36;6.07;;;1.85;;
29568;SDS011;16501;51.462;14.346;2022-10-16T11:11:44;4.47;;;1.95;;
29568;SDS011;16501;51.462;14.346;2022-10-16T11:14:26;5.20;;;2.05;;
29568;SDS011;16501;51.462;14.346;2022-10-16T11:17:08;2.28;;;1.67;;
29568;SDS011;16501;51.462;14.346;2022-10-16T11:25:12;1.85;;;1.30;;
29568;SDS011;16501;51.462;14.346;2022-10-16T11:28:27;1.50;;;1.38;;
29568;SDS011;16501;51.462;14.346;2022-10-16T11:30:45;2.60;;;1.20;;
29568;SDS011;16501;51.462;14.346;2022-10-16T11:35:44;4.85;;;2.63;;
29568;SDS011;16501;51.462;14.346;2022-10-16T11:41:26;2.80;;;1.90;;
29568;SDS011;16501;51.462;14.346;2022-10-16T11:43:56;1.25;;;1.13;;
29568;SDS011;16501;51.462;14.346;2022-10-16T11:46:32;3.47;;;1.20;;
29568;SDS011;16501;51.462;14.346;2022-10-16T11:49:14;3.13;;;0.90;;
29568;SDS011;16501;51.462;14.346;2022-10-16T11:54:44;3.70;;;0.90;;
29568;SDS011;16501;51.462;14.346;2022-10-16T11:57:35;2.80;;;0.80;;
29568;SDS011;16501;51.462;14.346;2022-10-16T12:00:14;0.65;;;0.65;;
29568;SDS011;16501;51.462;14.346;2022-10-16T12:08:21;1.35;;;0.60;;
29568;SDS011;16501;51.462;14.346;2022-10-16T12:10:47;0.40;;;0.40;;
29568;SDS011;16501;51.462;14.346;2022-10-16T12:13:32;2.10;;;0.60;;
29568;SDS011;16501;51.462;14.346;2022-10-16T12:18:37;1.20;;;0.40;;
29568;SDS011;16501;51.462;14.346;2022-10-16T12:21:04;0.52;;;0.50;;
29568;SDS011;16501;51.462;14.346;2022-10-16T12:23:38;0.88;;;0.63;;
29568;SDS011;16501;51.462;14.346;2022-10-16T12:26:13;5.38;;;0.80;;
29568;SDS011;16501;51.462;14.346;2022-10-16T12:28:39;1.52;;;0.80;;
29568;SDS011;16501;51.462;14.346;2022-10-16T12:31:06;1.42;;;0.70;;
29568;SDS011;16501;51.462;14.346;2022-10-16T12:36:02;0.60;;;0.60;;
29568;SDS011;16501;51.462;14.346;2022-10-16T12:41:10;0.85;;;0.70;;
29568;SDS011;16501;51.462;14.346;2022-10-16T12:43:41;0.73;;;0.60;;
29568;SDS011;16501;51.462;14.346;2022-10-16T12:48:39;1.65;;;0.47;;
29568;SDS011;16501;51.462;14.346;2022-10-16T12:51:33;0.47;;;0.40;;
29568;SDS011;16501;51.462;14.346;2022-10-16T12:53:58;0.80;;;0.50;;
29568;SDS011;16501;51.462;14.346;2022-10-16T13:01:59;0.93;;;0.80;;
29568;SDS011;16501;51.462;14.346;2022-10-16T13:12:49;1.23;;;1.13;;
29568;SDS011;16501;51.462;14.346;2022-10-16T13:26:59;2.72;;;1.15;;
29568;SDS011;16501;51.462;14.346;2022-10-16T13:29:32;3.38;;;1.30;;
29568;SDS011;16501;51.462;14.346;2022-10-16T13:31:59;1.80;;;1.55;;
29568;SDS011;16501;51.462;14.346;2022-10-16T13:34:31;2.72;;;1.58;;
29568;SDS011;16501;51.462;14.346;2022-10-16T13:36:58;1.80;;;1.42;;
29568;SDS011;16501;51.462;14.346;2022-10-16T13:39:24;2.08;;;1.35;;
29568;SDS011;16501;51.462;14.346;2022-10-16T13:44:52;4.85;;;1.60;;
29568;SDS011;16501;51.462;14.346;2022-10-16T13:47:25;1.85;;;1.75;;
29568;SDS011;16501;51.462;14.346;2022-10-16T13:52:34;6.30;;;4.28;;
29568;SDS011;16501;51.462;14.346;2022-10-16T13:54:59;2.25;;;2.03;;
29568;SDS011;16501;51.462;14.346;2022-10-16T13:57:24;4.72;;;1.92;;
29568;SDS011;16501;51.462;14.346;2022-10-16T13:59:51;1.33;;;1.23;;
29568;SDS011;16501;51.462;14.346;2022-10-16T14:04:46;4.25;;;2.90;;
29568;SDS011;16501;51.462;14.346;2022-10-16T14:07:20;1.83;;;1.23;;
29568;SDS011;16501;51.462;14.346;2022-10-16T14:09:50;1.88;;;0.82;;
29568;SDS011;16501;51.462;14.346;2022-10-16T14:12:16;2.47;;;1.00;;
29568;SDS011;16501;51.462;14.346;2022-10-16T14:14:51;2.13;;;1.20;;
29568;SDS011;16501;51.462;14.346;2022-10-16T14:17:23;1.10;;;1.00;;
29568;SDS011;16501;51.462;14.346;2022-10-16T14:19:51;1.42;;;0.93;;
29568;SDS011;16501;51.462;14.346;2022-10-16T14:24:58;2.15;;;1.20;;
29568;SDS011;16501;51.462;14.346;2022-10-16T14:27:31;0.80;;;0.80;;
29568;SDS011;16501;51.462;14.346;2022-10-16T14:32:36;1.38;;;1.00;;
29568;SDS011;16501;51.462;14.346;2022-10-16T14:35:02;4.53;;;1.30;;
29568;SDS011;16501;51.462;14.346;2022-10-16T14:37:28;1.15;;;0.90;;
29568;SDS011;16501;51.462;14.346;2022-10-16T14:39:54;0.73;;;0.73;;
29568;SDS011;16501;51.462;14.346;2022-10-16T14:42:23;1.00;;;0.88;;
29568;SDS011;16501;51.462;14.346;2022-10-16T14:44:51;4.38;;;1.10;;
29568;SDS011;16501;51.462;14.346;2022-10-16T14:47:19;2.45;;;0.95;;
29568;SDS011;16501;51.462;14.346;2022-10-16T14:49:53;0.88;;;0.73;;
29568;SDS011;16501;51.462;14.346;2022-10-16T14:52:21;3.20;;;0.93;;
29568;SDS011;16501;51.462;14.346;2022-10-16T14:54:49;4.55;;;0.95;;
29568;SDS011;16501;51.462;14.346;2022-10-16T14:57:19;1.20;;;0.95;;
29568;SDS011;16501;51.462;14.346;2022-10-16T14:59:49;2.40;;;0.63;;
29568;SDS011;16501;51.462;14.346;2022-10-16T15:04:54;4.18;;;0.70;;
29568;SDS011;16501;51.462;14.346;2022-10-16T15:07:20;0.73;;;0.63;;
29568;SDS011;16501;51.462;14.346;2022-10-16T15:09:46;2.80;;;0.98;;
29568;SDS011;16501;51.462;14.346;2022-10-16T15:12:11;0.70;;;0.60;;
29568;SDS011;16501;51.462;14.346;2022-10-16T15:14:39;0.73;;;0.60;;
29568;SDS011;16501;51.462;14.346;2022-10-16T15:17:07;0.85;;;0.65;;
29568;SDS011;16501;51.462;14.346;2022-10-16T15:19:36;0.82;;;0.70;;
29568;SDS011;16501;51.462;14.346;2022-10-16T15:22:02;1.42;;;0.90;;
29568;SDS011;16501;51.462;14.346;2022-10-16T15:24:27;5.20;;;0.70;;
29568;SDS011;16501;51.462;14.346;2022-10-16T15:26:53;1.27;;;0.57;;
29568;SDS011;16501;51.462;14.346;2022-10-16T15:29:18;5.72;;;1.20;;
29568;SDS011;16501;51.462;14.346;2022-10-16T15:31:44;2.42;;;0.88;;
29568;SDS011;16501;51.462;14.346;2022-10-16T15:34:12;3.67;;;1.00;;
29568;SDS011;16501;51.462;14.346;2022-10-16T15:36:38;5.70;;;0.95;;
29568;SDS011;16501;51.462;14.346;2022-10-16T15:39:04;1.75;;;1.00;;
29568;SDS011;16501;51.462;14.346;2022-10-16T15:41:35;10.07;;;1.35;;
29568;SDS011;16501;51.462;14.346;2022-10-16T15:44:00;4.28;;;0.75;;
29568;SDS011;16501;51.462;14.346;2022-10-16T15:46:26;4.80;;;0.95;;
29568;SDS011;16501;51.462;14.346;2022-10-16T15:48:55;4.53;;;1.00;;
29568;SDS011;16501;51.462;14.346;2022-10-16T15:51:22;3.17;;;0.73;;
29568;SDS011;16501;51.462;14.346;2022-10-16T15:53:48;3.72;;;0.88;;
29568;SDS011;16501;51.462;14.346;2022-10-16T15:56:16;2.05;;;0.75;;
29568;SDS011;16501;51.462;14.346;2022-10-16T15:58:43;5.72;;;0.85;;
29568;SDS011;16501;51.462;14.346;2022-10-16T16:01:09;3.70;;;0.95;;
29568;SDS011;16501;51.462;14.346;2022-10-16T16:03:36;11.48;;;3.05;;
29568;SDS011;16501;51.462;14.346;2022-10-16T16:06:05;2.70;;;1.30;;
29568;SDS011;16501;51.462;14.346;2022-10-16T16:08:35;3.95;;;1.40;;
29568;SDS011;16501;51.462;14.346;2022-10-16T16:11:04;4.05;;;1.10;;
29568;SDS011;16501;51.462;14.346;2022-10-16T16:13:30;7.68;;;3.58;;
29568;SDS011;16501;51.462;14.346;2022-10-16T16:15:56;8.57;;;2.70;;
29568;SDS011;16501;51.462;14.346;2022-10-16T16:18:21;10.82;;;4.32;;
29568;SDS011;16501;51.462;14.346;2022-10-16T16:20:48;12.50;;;4.32;;
29568;SDS011;16501;51.462;14.346;2022-10-16T16:23:14;6.07;;;2.90;;
29568;SDS011;16501;51.462;14.346;2022-10-16T16:25:40;8.80;;;2.78;;
29568;SDS011;16501;51.462;14.346;2022-10-16T16:28:06;7.65;;;4.25;;
29568;SDS011;16501;51.462;14.346;2022-10-16T16:30:32;66.55;;;30.13;;
29568;SDS011;16501;51.462;14.346;2022-10-16T16:32:57;52.15;;;26.55;;
29568;SDS011;16501;51.462;14.346;2022-10-16T16:35:22;32.83;;;15.98;;
29568;SDS011;16501;51.462;14.346;2022-10-16T16:37:48;22.00;;;11.70;;